Time;durP1;ratioP1;P1;durP2;ratioP2;P2;SDS_P1;SDS_P2;PMS_P1;PMS_P2;Temp;Humidity;BMP_temperature;BMP_pressure;BME280_temperature;BME280_humidity;BME280_pressure;Samples;Min_cycle;Max_cycle;Signal;HPM_P1;HPM_P2
2023/10/11 00:00:35;;;;;;;18.40;5.77;;;;;;;18.42;48.74;97805.47;5029926;28;20525;-71
2023/10/11 00:03:16;;;;;;;23.50;6.50;;;;;;;18.38;48.76;97801.56;5025321;28;20842;-71
2023/10/11 00:05:43;;;;;;;11.60;5.70;;;;;;;18.30;48.94;97802.50;5019332;28;20448;-72
2023/10/11 00:08:10;;;;;;;10.37;5.73;;;;;;;18.30;48.96;97804.31;5027260;28;20427;-71
2023/10/11 00:10:43;;;;;;;12.00;6.07;;;;;;;18.31;49.02;97798.00;5027188;28;20435;-68
2023/10/11 00:13:12;;;;;;;11.00;5.90;;;;;;;18.32;49.22;97794.34;5027369;28;21014;-71
2023/10/11 00:15:38;;;;;;;13.00;6.53;;;;;;;18.35;48.96;97799.28;5024893;28;20793;-74
2023/10/11 00:18:03;;;;;;;12.43;5.03;;;;;;;18.36;48.51;97801.75;5027152;28;20533;-71
2023/10/11 00:20:47;;;;;;;11.50;6.73;;;;;;;18.38;48.48;97796.25;5028332;28;20591;-71
2023/10/11 00:23:23;;;;;;;17.43;6.60;;;;;;;18.42;48.33;97798.34;5031571;28;20268;-71
2023/10/11 00:25:53;;;;;;;16.30;6.17;;;;;;;18.40;48.42;97792.41;5022448;28;20432;-70
2023/10/11 00:28:23;;;;;;;9.17;5.53;;;;;;;18.36;48.79;97795.63;5030883;28;20454;-71
2023/10/11 00:30:51;;;;;;;15.90;6.10;;;;;;;18.37;48.43;97789.31;5039965;28;20925;-73
2023/10/11 00:33:17;;;;;;;12.43;5.90;;;;;;;18.39;48.47;97792.59;5030364;28;20461;-71
2023/10/11 00:35:46;;;;;;;12.97;6.83;;;;;;;18.36;48.95;97791.13;5029782;28;20928;-73
2023/10/11 00:38:12;;;;;;;11.23;6.40;;;;;;;18.34;49.03;97787.03;5037013;28;20330;-71
2023/10/11 00:40:37;;;;;;;14.63;6.20;;;;;;;18.38;48.49;97783.00;5035022;28;20494;-70
2023/10/11 00:43:03;;;;;;;12.00;5.73;;;;;;;18.31;48.77;97777.63;5040703;28;20234;-71
2023/10/11 00:45:31;;;;;;;14.07;5.97;;;;;;;18.31;48.89;97790.03;5033140;28;20195;-73
2023/10/11 00:47:58;;;;;;;11.97;6.53;;;;;;;18.30;48.64;97783.09;5036969;28;20278;-71
2023/10/11 00:50:24;;;;;;;12.03;6.20;;;;;;;18.23;49.07;97781.22;5037830;28;20422;-73
2023/10/11 00:52:50;;;;;;;17.73;7.00;;;;;;;18.24;49.32;97776.72;5035428;28;20453;-71
2023/10/11 00:55:22;;;;;;;14.60;6.67;;;;;;;18.15;49.74;97776.00;5034669;28;20784;-70
2023/10/11 00:57:48;;;;;;;12.53;6.20;;;;;;;18.13;49.72;97783.34;5032175;28;20456;-70
2023/10/11 01:00:21;;;;;;;14.40;6.17;;;;;;;18.13;49.61;97783.34;5040268;28;20426;-71
2023/10/11 01:02:51;;;;;;;11.97;6.40;;;;;;;18.13;49.54;97775.38;5031753;28;20500;-70
2023/10/11 01:05:19;;;;;;;13.47;5.57;;;;;;;18.05;49.60;97778.13;5030396;28;20430;-72
2023/10/11 01:07:45;;;;;;;14.60;5.90;;;;;;;17.95;50.06;97773.09;5028413;28;20427;-72
2023/10/11 01:10:11;;;;;;;11.33;6.33;;;;;;;17.98;50.05;97769.28;5024661;28;20465;-72
2023/10/11 01:12:40;;;;;;;18.20;6.23;;;;;;;17.90;50.22;97770.19;5031777;28;20973;-72
2023/10/11 01:15:11;;;;;;;11.73;5.80;;;;;;;17.92;50.10;97774.28;5023566;28;20432;-71
2023/10/11 01:17:38;;;;;;;12.93;6.80;;;;;;;17.89;50.22;97769.38;5039077;28;20476;-71
2023/10/11 01:20:13;;;;;;;17.53;6.23;;;;;;;17.91;50.27;97767.34;5039660;28;20442;-70
2023/10/11 01:22:42;;;;;;;15.40;6.37;;;;;;;17.92;50.01;97758.38;5036360;28;20501;-70
2023/10/11 01:25:08;;;;;;;12.60;6.40;;;;;;;17.87;50.31;97760.78;5029779;28;21220;-72
2023/10/11 01:27:36;;;;;;;13.60;6.17;;;;;;;17.84;50.33;97760.31;5028570;28;20434;-72
2023/10/11 01:30:07;;;;;;;15.23;6.90;;;;;;;17.80;50.55;97757.19;5029160;28;20500;-73
2023/10/11 01:32:34;;;;;;;19.40;6.60;;;;;;;17.85;50.52;97756.66;5029255;28;20446;-72
2023/10/11 01:35:01;;;;;;;14.60;6.00;;;;;;;17.85;50.49;97756.66;5035147;28;20473;-69
2023/10/11 01:37:26;;;;;;;17.33;7.00;;;;;;;17.80;50.62;97755.38;5029086;28;20426;-71
2023/10/11 01:39:53;;;;;;;12.23;6.67;;;;;;;17.80;50.67;97754.56;5028970;28;20441;-71
2023/10/11 01:42:19;;;;;;;9.40;6.40;;;;;;;17.84;50.60;97750.53;5037973;28;20891;-70
2023/10/11 01:44:44;;;;;;;21.90;6.97;;;;;;;17.85;50.79;97752.19;5028999;28;20266;-71
2023/10/11 01:47:10;;;;;;;15.00;6.23;;;;;;;17.94;50.64;97750.25;5038934;28;20224;-72
2023/10/11 01:49:39;;;;;;;21.27;6.83;;;;;;;18.02;50.51;97744.06;5028966;28;20328;-71
2023/10/11 01:52:06;;;;;;;12.97;6.07;;;;;;;18.03;50.47;97743.84;5029106;28;20242;-71
2023/10/11 01:54:34;;;;;;;17.60;6.53;;;;;;;18.11;50.43;97745.56;5037207;28;20500;-73
2023/10/11 01:57:01;;;;;;;14.60;6.80;;;;;;;18.13;50.18;97743.56;5027170;28;20428;-72
2023/10/11 01:59:27;;;;;;;14.47;6.20;;;;;;;18.16;50.01;97743.16;5025075;28;20805;-70
2023/10/11 02:01:59;;;;;;;12.50;6.57;;;;;;;18.18;50.19;97733.19;5038599;28;20469;-71
2023/10/11 02:04:25;;;;;;;14.43;6.20;;;;;;;18.19;50.12;97742.78;5030756;28;20192;-73
2023/10/11 02:06:51;;;;;;;13.80;5.97;;;;;;;18.13;50.36;97740.91;5030183;28;20434;-71
2023/10/11 02:09:25;;;;;;;12.17;6.03;;;;;;;18.14;50.36;97734.59;5034828;28;20426;-72
2023/10/11 02:11:54;;;;;;;14.43;6.63;;;;;;;18.11;50.40;97746.38;5036303;28;20196;-71
2023/10/11 02:14:23;;;;;;;12.73;6.43;;;;;;;18.04;50.74;97736.69;5022713;28;20423;-72
2023/10/11 02:16:49;;;;;;;16.40;6.40;;;;;;;18.04;51.04;97734.06;5033505;28;20845;-72
2023/10/11 02:19:15;;;;;;;22.20;6.60;;;;;;;17.98;51.29;97740.13;5030078;28;20430;-72
2023/10/11 02:21:44;;;;;;;17.13;7.23;;;;;;;17.95;51.36;97743.94;5033872;28;20709;-73
2023/10/11 02:24:15;;;;;;;14.73;6.13;;;;;;;17.92;51.67;97747.75;5029046;28;20431;-70
2023/10/11 02:26:49;;;;;;;17.80;6.57;;;;;;;18.00;51.58;97738.09;5027501;28;20460;-72
2023/10/11 02:29:21;;;;;;;14.13;6.13;;;;;;;18.05;51.60;97741.00;5026852;28;20947;-70
2023/10/11 02:31:53;;;;;;;11.93;6.53;;;;;;;18.07;51.49;97739.00;5030814;28;20431;-71
2023/10/11 02:34:19;;;;;;;11.27;5.63;;;;;;;18.10;51.38;97734.13;5039461;28;20521;-70
2023/10/11 02:36:55;;;;;;;10.60;6.10;;;;;;;18.13;51.51;97738.25;5027838;28;20613;-71
2023/10/11 02:39:20;;;;;;;24.80;6.97;;;;;;;18.11;51.14;97746.38;5035703;28;20198;-70
2023/10/11 02:41:50;;;;;;;11.40;6.17;;;;;;;18.06;51.29;97737.34;5031131;28;20466;-70
2023/10/11 02:44:15;;;;;;;13.67;6.20;;;;;;;18.02;51.42;97744.06;5027196;28;20810;-71
2023/10/11 02:46:44;;;;;;;23.93;6.60;;;;;;;17.95;51.74;97738.63;5039238;28;20426;-70
2023/10/11 02:49:19;;;;;;;16.80;6.20;;;;;;;17.88;51.95;97729.78;5032371;28;20199;-69
2023/10/11 02:51:56;;;;;;;18.93;7.03;;;;;;;17.82;52.01;97728.69;5029940;28;20426;-71
2023/10/11 02:54:38;;;;;;;13.43;6.47;;;;;;;17.78;51.97;97727.41;5028655;28;20429;-73
2023/10/11 02:57:06;;;;;;;17.57;6.03;;;;;;;17.72;52.42;97731.63;5041579;28;20603;-70
2023/10/11 02:59:33;;;;;;;15.57;6.70;;;;;;;17.68;52.37;97732.19;5028630;28;20420;-69
2023/10/11 03:02:03;;;;;;;20.43;8.00;;;;;;;17.64;52.48;97726.44;5032097;28;20470;-72
2023/10/11 03:04:39;;;;;;;16.00;6.13;;;;;;;17.59;52.54;97729.63;5037391;28;20422;-73
2023/10/11 03:07:09;;;;;;;13.10;6.23;;;;;;;17.58;52.65;97720.03;5037614;28;20946;-73
2023/10/11 03:09:36;;;;;;;17.10;6.53;;;;;;;17.58;52.71;97717.41;5028932;28;20449;-70
2023/10/11 03:12:09;;;;;;;13.30;7.27;;;;;;;17.60;52.75;97718.03;5035738;28;20435;-71
2023/10/11 03:14:41;;;;;;;20.53;6.70;;;;;;;17.68;52.98;97724.22;5020741;28;20902;-72
2023/10/11 03:17:13;;;;;;;20.37;6.20;;;;;;;17.70;52.95;97722.22;5039411;28;20437;-70
2023/10/11 03:19:42;;;;;;;16.03;6.70;;;;;;;17.70;52.91;97724.88;5032019;28;21078;-71
2023/10/11 03:22:09;;;;;;;13.60;7.17;;;;;;;17.60;53.40;97720.69;5019543;28;20966;-73
2023/10/11 03:24:34;;;;;;;16.20;6.87;;;;;;;17.59;53.30;97721.69;5025234;28;20438;-73
2023/10/11 03:27:00;;;;;;;14.47;5.80;;;;;;;17.51;53.52;97713.84;5024223;28;20438;-73
2023/10/11 03:29:26;;;;;;;15.57;6.27;;;;;;;17.48;54.06;97716.84;5020564;28;20191;-71
2023/10/11 03:31:51;;;;;;;15.40;6.43;;;;;;;17.40;54.19;97720.41;5026429;28;20959;-71
2023/10/11 03:34:20;;;;;;;19.30;7.20;;;;;;;17.35;54.35;97713.03;5026026;28;20198;-72
2023/10/11 03:36:50;;;;;;;12.23;6.27;;;;;;;17.45;54.07;97722.53;5025195;28;20237;-70
2023/10/11 03:39:40;;;;;;;13.83;6.10;;;;;;;17.42;54.07;97717.56;5026116;28;21138;-71
2023/10/11 03:42:06;;;;;;;14.23;7.03;;;;;;;17.42;54.07;97709.63;5030049;28;20475;-69
2023/10/11 03:44:35;;;;;;;17.10;7.17;;;;;;;17.49;53.90;97716.66;5026610;28;20522;-69
2023/10/11 03:47:08;;;;;;;18.13;6.00;;;;;;;17.53;53.69;97717.13;5023403;28;20811;-73
2023/10/11 03:54:47;;;;;;;13.40;6.63;;;;;;;17.55;53.74;97716.94;5032892;28;20437;-72
2023/10/11 03:57:16;;;;;;;17.57;7.57;;;;;;;17.58;53.48;97720.03;5038553;28;21101;-71
2023/10/11 03:59:48;;;;;;;18.43;6.63;;;;;;;17.60;53.64;97717.19;5031267;28;20195;-72
2023/10/11 04:02:14;;;;;;;15.63;7.30;;;;;;;17.59;53.54;97708.44;5030186;28;20530;-71
2023/10/11 04:04:42;;;;;;;14.70;6.20;;;;;;;17.52;53.60;97710.16;5029349;28;20642;-70
2023/10/11 04:07:12;;;;;;;18.33;6.77;;;;;;;17.52;53.68;97710.16;5012847;28;20575;-71
2023/10/11 04:09:39;;;;;;;16.63;6.80;;;;;;;17.51;53.34;97711.19;5028913;28;20501;-71
2023/10/11 04:12:04;;;;;;;12.83;7.17;;;;;;;17.50;53.56;97709.56;5020701;28;20434;-71
2023/10/11 04:17:25;;;;;;;11.60;6.63;;;;;;;17.50;53.81;97712.19;5028611;28;20187;-71
2023/10/11 04:20:00;;;;;;;15.23;7.10;;;;;;;17.56;53.43;97716.75;5025488;28;20499;-71
2023/10/11 04:22:31;;;;;;;15.63;7.30;;;;;;;17.57;53.23;97713.09;5042353;28;20555;-73
2023/10/11 04:24:57;;;;;;;18.47;7.40;;;;;;;17.50;53.34;97712.19;5039608;28;20546;-72
2023/10/11 04:29:52;;;;;;;20.17;7.07;;;;;;;17.48;53.22;97712.38;5039689;28;20436;-74
2023/10/11 04:35:02;;;;;;;16.40;6.70;;;;;;;17.39;53.66;97715.31;5029282;28;20440;-71
2023/10/11 04:37:29;;;;;;;15.17;6.43;;;;;;;17.38;53.59;97719.78;5021944;28;20438;-70
2023/10/11 04:40:14;;;;;;;17.63;7.10;;;;;;;17.39;53.58;97716.13;5029605;28;20188;-71
2023/10/11 04:42:40;;;;;;;18.03;8.03;;;;;;;17.39;53.39;97720.63;5030187;28;20458;-72
2023/10/11 04:45:06;;;;;;;15.03;7.27;;;;;;;17.47;53.17;97715.22;5042589;28;20475;-73
2023/10/11 04:47:50;;;;;;;13.40;6.50;;;;;;;17.44;53.03;97718.22;5024750;28;20192;-71
2023/10/11 04:50:16;;;;;;;23.67;7.93;;;;;;;17.35;53.27;97713.03;5028631;28;20433;-72
2023/10/11 04:52:47;;;;;;;22.23;7.13;;;;;;;17.31;53.31;97727.63;5029652;28;20962;-69
2023/10/11 04:55:14;;;;;;;12.67;6.97;;;;;;;17.09;54.32;97721.41;5030061;28;20198;-71
2023/10/11 05:00:30;;;;;;;19.50;6.83;;;;;;;17.17;53.86;97723.16;5037517;28;20440;-72
2023/10/11 05:02:58;;;;;;;25.13;7.17;;;;;;;17.22;53.60;97722.59;5029352;28;20589;-72
2023/10/11 05:05:24;;;;;;;19.03;7.00;;;;;;;17.24;53.56;97724.09;5035885;28;20492;-71
2023/10/11 05:08:01;;;;;;;19.30;6.53;;;;;;;17.27;53.63;97718.41;5028903;28;20711;-73
2023/10/11 05:13:05;;;;;;;15.73;6.90;;;;;;;17.11;53.82;97718.59;5032685;28;20450;-72
2023/10/11 05:15:34;;;;;;;14.97;6.70;;;;;;;17.11;54.13;97723.88;5028389;28;20252;-72
2023/10/11 05:18:00;;;;;;;16.00;6.10;;;;;;;17.16;53.57;97725.00;5037994;28;21302;-71
2023/10/11 05:20:45;;;;;;;15.80;7.77;;;;;;;17.14;53.52;97719.06;5034224;28;20445;-72
2023/10/11 05:23:14;;;;;;;14.20;7.37;;;;;;;17.18;53.73;97719.50;5033562;28;20212;-71
2023/10/11 05:25:58;;;;;;;14.70;7.27;;;;;;;17.08;53.92;97722.41;5029537;28;20943;-72
2023/10/11 05:28:27;;;;;;;15.27;7.20;;;;;;;17.06;53.96;97723.59;5022444;28;20437;-70
2023/10/11 05:31:22;;;;;;;19.80;7.00;;;;;;;17.02;54.04;97721.31;5029328;28;20795;-72
2023/10/11 05:52:55;;;;;;;16.13;6.70;;;;;;;16.99;53.87;97727.00;5033094;28;20446;-70
2023/10/11 05:55:22;;;;;;;24.17;6.77;;;;;;;16.99;53.85;97724.34;5026806;28;20519;-73
2023/10/11 05:57:48;;;;;;;28.27;8.70;;;;;;;16.99;54.00;97728.78;5028325;28;20464;-71
2023/10/11 06:00:23;;;;;;;16.50;7.40;;;;;;;16.95;53.98;97731.00;5030290;28;20442;-70
2023/10/11 06:02:52;;;;;;;17.43;7.20;;;;;;;16.91;54.30;97732.31;5035420;28;20716;-71
2023/10/11 06:05:23;;;;;;;20.43;7.03;;;;;;;16.91;54.02;97734.97;5043720;28;20433;-71
2023/10/11 06:08:00;;;;;;;14.47;7.90;;;;;;;16.90;54.17;97733.31;5035889;28;20529;-71
2023/10/11 06:10:29;;;;;;;21.03;7.17;;;;;;;16.98;54.25;97732.44;5040761;28;20512;-71
2023/10/11 06:12:58;;;;;;;17.60;8.10;;;;;;;17.06;53.88;97736.84;5031049;28;20974;-71
2023/10/11 06:15:23;;;;;;;18.53;6.30;;;;;;;17.08;53.98;97734.84;5024031;28;21031;-71
2023/10/11 06:17:49;;;;;;;14.30;7.20;;;;;;;17.09;54.14;97731.19;5037821;28;20480;-72
2023/10/11 06:20:27;;;;;;;14.93;6.60;;;;;;;17.12;53.93;97736.13;5036070;28;20227;-72
2023/10/11 06:22:56;;;;;;;18.33;7.97;;;;;;;17.22;53.95;97736.69;5027745;28;20315;-72
2023/10/11 06:28:13;;;;;;;13.03;7.60;;;;;;;17.29;54.10;97727.00;5030824;28;20433;-71
2023/10/11 06:30:40;;;;;;;20.60;7.57;;;;;;;17.36;54.19;97721.78;5027816;28;21284;-72
2023/10/11 06:33:07;;;;;;;17.27;8.33;;;;;;;17.42;54.22;97714.94;5039040;28;20950;-72
2023/10/11 06:35:43;;;;;;;28.00;8.53;;;;;;;17.52;54.28;97730.56;5024211;28;20439;-69
2023/10/11 06:38:09;;;;;;;16.40;7.03;;;;;;;17.68;53.68;97727.72;5024311;28;20795;-71
2023/10/11 06:40:39;;;;;;;23.43;8.07;;;;;;;17.82;54.04;97731.34;5028058;28;20430;-73
2023/10/11 06:43:08;;;;;;;19.40;7.87;;;;;;;17.94;53.62;97726.38;5022502;28;20462;-71
2023/10/11 06:45:35;;;;;;;26.73;6.93;;;;;;;18.07;53.22;97728.38;5028212;28;20442;-69
2023/10/11 06:48:06;;;;;;;17.30;7.57;;;;;;;18.14;53.04;97731.94;5030993;28;20809;-71
2023/10/11 06:50:36;;;;;;;15.13;7.10;;;;;;;18.24;52.74;97724.50;5030999;28;20419;-71
2023/10/11 06:53:06;;;;;;;28.43;8.00;;;;;;;18.32;52.43;97728.03;5028208;28;20982;-73
2023/10/11 06:55:33;;;;;;;22.97;7.13;;;;;;;18.39;52.42;97731.56;5027658;28;20851;-71
2023/10/11 06:58:05;;;;;;;22.10;7.13;;;;;;;18.47;51.99;97734.09;5030997;28;20433;-70
2023/10/11 07:00:37;;;;;;;13.80;6.83;;;;;;;18.56;52.07;97732.94;5049905;28;20993;-70
2023/10/11 07:03:07;;;;;;;14.33;6.77;;;;;;;18.69;52.01;97736.72;5032406;28;20519;-70
2023/10/11 07:05:42;;;;;;;22.73;7.80;;;;;;;18.80;51.47;97741.50;5034338;28;20433;-71
2023/10/11 07:08:10;;;;;;;17.60;7.50;;;;;;;18.86;51.22;97738.09;5027296;28;20437;-69
2023/10/11 07:10:40;;;;;;;24.23;8.20;;;;;;;18.92;51.07;97746.28;5036850;28;20419;-70
2023/10/11 07:13:07;;;;;;;17.70;7.00;;;;;;;18.97;51.17;97736.75;5027985;28;20544;-71
2023/10/11 07:15:40;;;;;;;20.97;7.87;;;;;;;19.01;51.50;97740.69;5031231;28;20433;-72
2023/10/11 07:18:08;;;;;;;19.10;6.80;;;;;;;19.09;51.79;97731.75;5039205;28;20918;-69
2023/10/11 07:20:58;;;;;;;16.07;7.20;;;;;;;19.16;51.53;97737.91;5033914;28;20512;-73
2023/10/11 07:23:34;;;;;;;16.57;7.50;;;;;;;19.23;51.18;97735.31;5029540;28;21067;-70
2023/10/11 07:26:22;;;;;;;21.13;7.00;;;;;;;19.30;50.80;97735.34;5039395;28;20440;-72
2023/10/11 07:28:50;;;;;;;16.87;7.10;;;;;;;19.35;50.68;97738.25;5026637;28;20926;-73
2023/10/11 07:31:17;;;;;;;21.60;6.50;;;;;;;19.42;50.65;97741.75;5034550;28;20441;-71
2023/10/11 07:33:49;;;;;;;15.30;7.00;;;;;;;19.47;50.65;97749.13;5026781;28;20458;-70
2023/10/11 07:36:15;;;;;;;16.10;6.50;;;;;;;19.54;50.34;97752.66;5027520;28;20529;-70
2023/10/11 07:38:43;;;;;;;16.77;5.87;;;;;;;19.60;49.86;97749.19;5027603;28;20517;-70
2023/10/11 07:41:17;;;;;;;17.47;8.20;;;;;;;19.68;49.54;97753.53;5031344;28;20392;-70
2023/10/11 07:43:45;;;;;;;17.47;6.60;;;;;;;19.76;49.76;97740.09;5029662;28;20465;-71
2023/10/11 07:46:11;;;;;;;21.40;6.60;;;;;;;19.87;49.62;97749.34;5034028;28;20520;-70
2023/10/11 07:48:39;;;;;;;17.60;6.20;;;;;;;20.02;49.48;97749.22;5034703;28;20434;-71
2023/10/11 07:51:09;;;;;;;28.87;6.97;;;;;;;20.22;48.85;97740.47;5027686;28;20426;-71
2023/10/11 07:53:43;;;;;;;19.80;7.10;;;;;;;20.46;48.64;97741.75;5025390;28;20473;-71
2023/10/11 07:56:09;;;;;;;18.27;7.00;;;;;;;20.75;48.01;97746.91;5027486;28;21113;-71
2023/10/11 07:58:35;;;;;;;13.10;5.67;;;;;;;21.02;47.59;97747.72;5025108;28;20437;-70
2023/10/11 08:01:04;;;;;;;16.63;6.00;;;;;;;21.33;46.86;97741.72;5035156;28;20500;-72
2023/10/11 08:03:35;;;;;;;17.47;5.47;;;;;;;21.65;45.91;97732.25;5026764;28;20446;-70
2023/10/11 08:06:08;;;;;;;19.70;5.50;;;;;;;22.03;44.92;97739.47;5033440;28;20427;-71
2023/10/11 08:08:37;;;;;;;14.90;6.00;;;;;;;22.40;43.60;97743.13;5032384;28;20433;-71
2023/10/11 08:11:14;;;;;;;22.83;5.63;;;;;;;22.80;42.83;97730.56;5028311;28;20980;-71
2023/10/11 08:13:39;;;;;;;24.07;6.20;;;;;;;23.20;41.31;97734.72;5032067;28;20442;-71
2023/10/11 08:16:13;;;;;;;18.63;5.80;;;;;;;23.56;40.20;97725.13;5029882;28;20500;-70
2023/10/11 08:18:39;;;;;;;20.83;5.40;;;;;;;23.92;38.62;97729.59;5023978;28;20183;-70
2023/10/11 08:21:05;;;;;;;15.77;5.13;;;;;;;24.26;38.36;97729.19;5038870;28;20428;-71
2023/10/11 08:23:31;;;;;;;13.57;4.80;;;;;;;24.56;37.02;97727.50;5026890;28;20200;-71
2023/10/11 08:25:57;;;;;;;23.37;5.47;;;;;;;24.89;35.90;97718.16;5031469;28;20949;-70
2023/10/11 08:28:29;;;;;;;11.00;5.20;;;;;;;25.19;34.32;97728.75;5026847;28;20225;-71
2023/10/11 08:30:57;;;;;;;20.60;5.40;;;;;;;25.53;34.29;97720.09;5032796;28;20487;-72
2023/10/11 08:33:30;;;;;;;14.13;4.57;;;;;;;25.83;32.84;97730.66;5028408;28;20457;-71
2023/10/11 08:35:56;;;;;;;11.90;4.90;;;;;;;26.09;31.54;97724.94;5033230;28;20518;-70
2023/10/11 08:38:24;;;;;;;17.23;4.20;;;;;;;26.34;30.72;97738.03;5026597;28;20434;-70
2023/10/11 08:40:57;;;;;;;13.77;4.40;;;;;;;26.63;29.76;97736.13;5025520;28;20510;-70
2023/10/11 08:43:23;;;;;;;10.20;4.20;;;;;;;26.82;29.78;97723.28;5032583;28;20485;-71
2023/10/11 08:45:50;;;;;;;10.50;4.30;;;;;;;27.09;30.26;97727.97;5012288;28;20453;-70
2023/10/11 08:48:15;;;;;;;20.47;5.27;;;;;;;27.36;29.31;97724.56;5037879;28;20743;-70
2023/10/11 08:50:51;;;;;;;14.57;4.90;;;;;;;27.61;28.83;97730.56;5030300;28;20511;-70
2023/10/11 08:53:20;;;;;;;15.30;4.40;;;;;;;27.90;28.91;97723.09;5035753;28;20582;-69
2023/10/11 08:55:51;;;;;;;13.40;5.30;;;;;;;28.19;28.16;97722.91;5031234;28;20889;-70
2023/10/11 08:58:29;;;;;;;15.83;4.40;;;;;;;28.45;26.88;97731.22;5038791;28;20938;-70
2023/10/11 09:00:59;;;;;;;14.33;4.73;;;;;;;28.71;26.83;97715.25;5033209;28;20418;-70
2023/10/11 09:03:46;;;;;;;15.77;4.47;;;;;;;28.97;26.66;97718.97;5029867;28;21031;-69
2023/10/11 09:06:22;;;;;;;23.07;5.03;;;;;;;29.17;26.42;97715.59;5031731;28;20532;-70
2023/10/11 09:08:47;;;;;;;19.90;4.83;;;;;;;29.43;26.07;97710.34;5036915;28;20430;-71
2023/10/11 09:11:33;;;;;;;10.70;4.30;;;;;;;29.77;25.83;97712.63;5034664;28;20430;-70
2023/10/11 09:14:11;;;;;;;12.93;4.33;;;;;;;29.97;25.49;97714.63;5038064;28;20210;-71
2023/10/11 09:16:37;;;;;;;21.87;4.40;;;;;;;30.10;25.13;97705.22;5035371;28;21023;-72
2023/10/11 09:19:06;;;;;;;24.67;4.60;;;;;;;30.36;25.31;97705.25;5034861;28;20559;-72
2023/10/11 09:21:35;;;;;;;13.13;4.57;;;;;;;30.64;24.54;97711.19;5030269;28;20470;-70
2023/10/11 09:24:03;;;;;;;14.20;4.77;;;;;;;30.83;24.78;97710.66;5034685;28;20985;-71
2023/10/11 09:26:33;;;;;;;15.20;4.30;;;;;;;31.04;23.62;97703.31;5042697;28;20563;-70
2023/10/11 09:29:04;;;;;;;14.40;4.57;;;;;;;31.18;24.34;97704.41;5036754;28;21188;-71
2023/10/11 09:31:31;;;;;;;18.97;4.27;;;;;;;31.23;23.24;97704.38;5029089;28;20849;-72
2023/10/11 09:34:07;;;;;;;19.40;4.37;;;;;;;31.48;23.75;97707.28;5021834;28;21071;-71
2023/10/11 09:36:33;;;;;;;10.70;4.50;;;;;;;31.58;23.26;97715.34;5029187;28;20425;-70
2023/10/11 09:38:59;;;;;;;14.73;4.37;;;;;;;31.82;23.24;97712.03;5028453;28;20434;-69
2023/10/11 09:41:28;;;;;;;16.00;3.70;;;;;;;31.99;22.82;97708.94;5034323;28;21144;-70
2023/10/11 09:43:59;;;;;;;10.87;4.87;;;;;;;32.19;22.87;97710.72;5030186;28;20450;-69
2023/10/11 09:46:29;;;;;;;23.33;5.27;;;;;;;32.27;22.98;97717.47;5037308;28;20445;-70
2023/10/11 09:49:12;;;;;;;14.53;4.40;;;;;;;32.53;22.59;97720.78;5033666;28;20521;-71
2023/10/11 09:51:40;;;;;;;17.10;4.37;;;;;;;32.62;22.36;97710.16;5029208;28;20432;-71
2023/10/11 09:54:12;;;;;;;17.00;4.20;;;;;;;32.71;22.56;97713.84;5039651;28;20509;-69
2023/10/11 09:56:50;;;;;;;13.37;3.87;;;;;;;32.75;22.67;97716.81;5036853;28;20461;-68
2023/10/11 09:59:47;;;;;;;15.77;4.40;;;;;;;33.03;22.31;97722.53;5036027;28;20434;-69
2023/10/11 10:02:37;;;;;;;14.57;4.40;;;;;;;33.11;22.28;97708.38;5030143;28;20469;-70
2023/10/11 10:05:06;;;;;;;17.03;5.10;;;;;;;33.34;22.29;97711.38;5034481;28;20460;-70
2023/10/11 10:07:45;;;;;;;9.60;3.70;;;;;;;33.52;21.79;97713.34;5030398;28;20433;-69
2023/10/11 10:10:13;;;;;;;14.40;3.83;;;;;;;33.74;21.71;97711.16;5029455;28;20859;-70
2023/10/11 10:12:43;;;;;;;12.80;4.37;;;;;;;33.64;21.31;97709.41;5030735;28;20441;-70
2023/10/11 10:15:14;;;;;;;16.27;3.80;;;;;;;33.44;21.74;97705.03;5028986;28;20427;-70
2023/10/11 10:18:05;;;;;;;12.60;4.00;;;;;;;33.69;22.18;97703.91;5037123;28;20955;-71
2023/10/11 10:20:33;;;;;;;21.53;4.17;;;;;;;33.58;21.55;97705.97;5032346;28;20905;-70
2023/10/11 10:23:22;;;;;;;10.60;3.70;;;;;;;33.36;22.38;97704.56;5034849;28;20549;-70
2023/10/11 10:25:48;;;;;;;16.10;3.47;;;;;;;33.65;22.02;97700.13;5028576;28;20591;-71
2023/10/11 10:28:45;;;;;;;12.30;4.00;;;;;;;33.50;22.06;97703.88;5029204;28;20431;-70
2023/10/11 10:31:18;;;;;;;27.83;4.63;;;;;;;33.67;22.26;97703.38;5032250;28;20611;-69
2023/10/11 10:33:49;;;;;;;24.07;4.70;;;;;;;33.88;21.63;97703.94;5028349;28;23790;-69
2023/10/11 10:36:17;;;;;;;20.87;4.70;;;;;;;34.07;21.67;97697.72;5035321;28;20438;-71
2023/10/11 10:41:41;;;;;;;17.73;3.77;;;;;;;34.65;21.83;97703.88;5034233;28;21009;-70
2023/10/11 10:44:09;;;;;;;14.13;4.00;;;;;;;34.81;21.75;97702.53;5036111;28;20458;-72
2023/10/11 10:46:35;;;;;;;13.10;4.10;;;;;;;34.97;20.89;97700.34;5026952;28;20188;-69
2023/10/11 10:49:03;;;;;;;18.57;4.03;;;;;;;35.11;21.38;97692.19;5036497;28;20423;-71
2023/10/11 10:51:35;;;;;;;12.30;4.10;;;;;;;35.29;21.13;97692.41;5035591;28;20934;-71
2023/10/11 10:54:12;;;;;;;14.83;4.13;;;;;;;35.24;20.35;97696.03;5035918;28;20533;-70
2023/10/11 10:56:39;;;;;;;24.23;4.53;;;;;;;35.11;20.83;97689.47;5037353;28;20475;-70
2023/10/11 10:59:07;;;;;;;12.77;3.67;;;;;;;34.87;21.09;97684.19;5039139;28;20485;-71
2023/10/11 11:01:34;;;;;;;18.10;3.70;;;;;;;35.02;20.97;97681.22;5029829;28;20958;-70
2023/10/11 11:04:09;;;;;;;13.00;4.17;;;;;;;35.22;20.68;97679.19;5027409;28;20530;-70
2023/10/11 11:06:38;;;;;;;9.63;3.80;;;;;;;35.34;20.51;97676.75;5036192;28;20417;-70
2023/10/11 11:09:04;;;;;;;15.10;3.70;;;;;;;35.28;20.38;97669.81;5035431;28;20939;-71
2023/10/11 11:11:35;;;;;;;15.00;4.17;;;;;;;35.14;20.45;97666.28;5043396;28;20433;-71
2023/10/11 11:14:08;;;;;;;8.23;4.33;;;;;;;35.16;20.67;97664.06;5029435;28;20433;-71
2023/10/11 11:16:38;;;;;;;21.97;3.93;;;;;;;35.27;20.85;97660.03;5030746;28;20454;-70
2023/10/11 11:19:11;;;;;;;9.23;3.47;;;;;;;35.30;20.23;97655.88;5031400;28;20431;-70
2023/10/11 11:21:44;;;;;;;21.50;4.27;;;;;;;35.15;20.91;97659.75;5028431;28;20915;-72
2023/10/11 11:24:34;;;;;;;18.37;3.90;;;;;;;35.24;21.01;97655.19;5038248;28;20460;-70
2023/10/11 11:27:06;;;;;;;9.37;3.40;;;;;;;35.45;20.61;97650.16;5028129;28;20499;-69
2023/10/11 11:29:31;;;;;;;19.53;4.70;;;;;;;35.65;20.55;97651.63;5026606;28;20422;-70
2023/10/11 11:32:00;;;;;;;14.40;4.10;;;;;;;35.82;20.17;97652.88;5027154;28;20484;-70
2023/10/11 11:34:33;;;;;;;11.47;3.60;;;;;;;35.73;20.12;97647.34;5027378;28;20261;-73
2023/10/11 11:37:02;;;;;;;16.17;4.10;;;;;;;35.67;20.44;97646.66;5036843;28;20556;-72
2023/10/11 11:39:36;;;;;;;15.03;3.93;;;;;;;35.71;20.10;97637.88;5035969;28;20938;-72
2023/10/11 11:42:17;;;;;;;14.97;4.00;;;;;;;35.89;20.23;97642.38;5039205;28;20460;-71
2023/10/11 11:44:44;;;;;;;14.23;4.67;;;;;;;35.77;19.91;97636.66;5030585;28;20538;-70
2023/10/11 11:47:09;;;;;;;10.63;3.90;;;;;;;35.65;20.14;97632.56;5027060;28;20525;-70
2023/10/11 11:49:35;;;;;;;18.13;4.90;;;;;;;35.56;20.29;97639.81;5026852;28;21156;-71
2023/10/11 11:52:00;;;;;;;20.03;4.33;;;;;;;35.61;20.31;97630.72;5035975;28;20206;-71
2023/10/11 11:54:28;;;;;;;11.80;3.80;;;;;;;35.20;20.48;97630.47;5027513;28;20253;-72
2023/10/11 11:56:54;;;;;;;13.40;3.90;;;;;;;35.20;20.67;97624.22;5027334;28;20198;-70
2023/10/11 11:59:21;;;;;;;15.47;3.80;;;;;;;35.24;20.57;97627.97;5024522;28;20418;-71
2023/10/11 12:01:53;;;;;;;12.87;3.67;;;;;;;35.16;20.52;97615.06;5029244;28;20808;-72
2023/10/11 12:04:29;;;;;;;21.13;4.60;;;;;;;35.19;20.83;97615.25;5027590;28;20454;-71
2023/10/11 12:07:00;;;;;;;14.37;4.30;;;;;;;35.33;20.18;97609.78;5037666;28;20520;-71
2023/10/11 12:09:32;;;;;;;16.27;3.53;;;;;;;35.30;20.40;97598.69;5024377;28;20429;-71
2023/10/11 12:12:05;;;;;;;13.63;4.93;;;;;;;35.51;20.27;97593.63;5046323;28;20427;-70
2023/10/11 12:14:38;;;;;;;12.03;3.20;;;;;;;35.65;19.72;97591.69;5026202;28;20964;-72
2023/10/11 12:17:10;;;;;;;11.57;3.17;;;;;;;35.66;19.84;97589.75;5031877;28;20429;-72
2023/10/11 12:19:42;;;;;;;12.27;3.67;;;;;;;35.67;19.70;97586.72;5035487;28;20842;-72
2023/10/11 12:22:10;;;;;;;15.97;3.50;;;;;;;35.61;18.42;97582.50;5020900;28;20458;-71